sensor_id;sensor_type;location;lat;lon;timestamp;P1;durP1;ratioP1;P2;durP2;ratioP2
61009;SDS011;46897;55.340;86.082;2023-04-12T00:01:47;14.23;;;4.65;;
61009;SDS011;46897;55.340;86.082;2023-04-12T00:04:17;8.65;;;2.95;;
61009;SDS011;46897;55.340;86.082;2023-04-12T00:07:04;11.65;;;3.47;;
61009;SDS011;46897;55.340;86.082;2023-04-12T00:09:35;17.35;;;5.35;;
61009;SDS011;46897;55.340;86.082;2023-04-12T00:12:05;13.32;;;5.05;;
61009;SDS011;46897;55.340;86.082;2023-04-12T00:14:36;19.17;;;6.05;;
61009;SDS011;46897;55.340;86.082;2023-04-12T00:19:58;12.57;;;4.68;;
61009;SDS011;46897;55.340;86.082;2023-04-12T00:22:44;13.32;;;4.57;;
61009;SDS011;46897;55.340;86.082;2023-04-12T00:25:31;11.65;;;3.15;;
61009;SDS011;46897;55.340;86.082;2023-04-12T00:28:00;7.70;;;3.58;;
61009;SDS011;46897;55.340;86.082;2023-04-12T00:30:31;18.08;;;4.65;;
61009;SDS011;46897;55.340;86.082;2023-04-12T00:33:00;12.57;;;4.68;;
61009;SDS011;46897;55.340;86.082;2023-04-12T00:35:29;8.98;;;3.92;;
61009;SDS011;46897;55.340;86.082;2023-04-12T00:41:03;11.93;;;4.07;;
61009;SDS011;46897;55.340;86.082;2023-04-12T00:43:49;13.30;;;4.63;;
61009;SDS011;46897;55.340;86.082;2023-04-12T00:46:20;11.35;;;4.50;;
61009;SDS011;46897;55.340;86.082;2023-04-12T00:51:38;11.88;;;3.17;;
61009;SDS011;46897;55.340;86.082;2023-04-12T00:54:07;6.50;;;2.50;;
61009;SDS011;46897;55.340;86.082;2023-04-12T00:56:37;13.68;;;3.78;;
61009;SDS011;46897;55.340;86.082;2023-04-12T00:59:24;9.60;;;3.50;;
61009;SDS011;46897;55.340;86.082;2023-04-12T01:01:55;8.07;;;3.45;;
61009;SDS011;46897;55.340;86.082;2023-04-12T01:04:25;6.05;;;2.80;;
61009;SDS011;46897;55.340;86.082;2023-04-12T01:06:59;13.75;;;3.58;;
61009;SDS011;46897;55.340;86.082;2023-04-12T01:09:39;7.10;;;3.17;;
61009;SDS011;46897;55.340;86.082;2023-04-12T01:12:35;10.05;;;4.82;;
61009;SDS011;46897;55.340;86.082;2023-04-12T01:15:14;10.40;;;3.72;;
61009;SDS011;46897;55.340;86.082;2023-04-12T01:17:48;5.20;;;1.75;;
61009;SDS011;46897;55.340;86.082;2023-04-12T01:20:24;12.65;;;3.35;;
61009;SDS011;46897;55.340;86.082;2023-04-12T01:23:24;11.55;;;3.10;;
61009;SDS011;46897;55.340;86.082;2023-04-12T01:26:09;5.18;;;2.13;;
61009;SDS011;46897;55.340;86.082;2023-04-12T01:28:50;6.10;;;2.58;;
61009;SDS011;46897;55.340;86.082;2023-04-12T01:31:21;4.22;;;1.40;;
61009;SDS011;46897;55.340;86.082;2023-04-12T01:33:52;6.75;;;2.17;;
61009;SDS011;46897;55.340;86.082;2023-04-12T01:36:22;10.73;;;3.75;;
61009;SDS011;46897;55.340;86.082;2023-04-12T01:38:55;12.73;;;3.72;;
61009;SDS011;46897;55.340;86.082;2023-04-12T01:42:02;19.13;;;6.05;;
61009;SDS011;46897;55.340;86.082;2023-04-12T01:44:32;12.75;;;5.03;;
61009;SDS011;46897;55.340;86.082;2023-04-12T01:49:54;14.80;;;5.50;;
61009;SDS011;46897;55.340;86.082;2023-04-12T01:52:31;10.50;;;3.85;;
61009;SDS011;46897;55.340;86.082;2023-04-12T01:58:13;14.55;;;4.80;;
61009;SDS011;46897;55.340;86.082;2023-04-12T02:03:39;19.00;;;7.00;;
61009;SDS011;46897;55.340;86.082;2023-04-12T02:06:18;15.38;;;5.32;;
61009;SDS011;46897;55.340;86.082;2023-04-12T02:08:48;18.08;;;6.80;;
61009;SDS011;46897;55.340;86.082;2023-04-12T02:14:33;12.85;;;4.15;;
61009;SDS011;46897;55.340;86.082;2023-04-12T02:17:04;12.52;;;3.72;;
61009;SDS011;46897;55.340;86.082;2023-04-12T02:19:34;4.95;;;2.22;;
61009;SDS011;46897;55.340;86.082;2023-04-12T02:22:21;16.63;;;4.10;;
61009;SDS011;46897;55.340;86.082;2023-04-12T02:24:50;29.73;;;7.38;;
61009;SDS011;46897;55.340;86.082;2023-04-12T02:27:25;13.43;;;4.97;;
61009;SDS011;46897;55.340;86.082;2023-04-12T02:29:55;10.10;;;3.58;;
61009;SDS011;46897;55.340;86.082;2023-04-12T02:32:42;21.95;;;6.45;;
61009;SDS011;46897;55.340;86.082;2023-04-12T02:35:14;9.82;;;3.55;;
61009;SDS011;46897;55.340;86.082;2023-04-12T02:40:39;17.25;;;6.50;;
61009;SDS011;46897;55.340;86.082;2023-04-12T02:43:09;20.45;;;6.03;;
61009;SDS011;46897;55.340;86.082;2023-04-12T02:45:41;21.20;;;7.55;;
61009;SDS011;46897;55.340;86.082;2023-04-12T02:48:30;17.38;;;6.68;;
61009;SDS011;46897;55.340;86.082;2023-04-12T02:51:17;12.65;;;3.30;;
61009;SDS011;46897;55.340;86.082;2023-04-12T02:54:04;13.73;;;4.75;;
61009;SDS011;46897;55.340;86.082;2023-04-12T02:56:34;12.80;;;4.15;;
61009;SDS011;46897;55.340;86.082;2023-04-12T02:59:03;25.98;;;7.00;;
61009;SDS011;46897;55.340;86.082;2023-04-12T03:01:32;23.25;;;7.53;;
61009;SDS011;46897;55.340;86.082;2023-04-12T03:04:03;11.95;;;4.22;;
61009;SDS011;46897;55.340;86.082;2023-04-12T03:06:33;18.75;;;5.38;;
61009;SDS011;46897;55.340;86.082;2023-04-12T03:09:03;15.20;;;5.30;;
61009;SDS011;46897;55.340;86.082;2023-04-12T03:11:33;15.93;;;4.50;;
61009;SDS011;46897;55.340;86.082;2023-04-12T03:16:50;7.05;;;3.45;;
61009;SDS011;46897;55.340;86.082;2023-04-12T03:19:37;15.93;;;5.05;;
61009;SDS011;46897;55.340;86.082;2023-04-12T03:22:07;15.68;;;4.90;;
61009;SDS011;46897;55.340;86.082;2023-04-12T03:24:36;20.38;;;5.03;;
61009;SDS011;46897;55.340;86.082;2023-04-12T03:27:10;13.43;;;4.43;;
61009;SDS011;46897;55.340;86.082;2023-04-12T03:29:39;21.73;;;6.90;;
61009;SDS011;46897;55.340;86.082;2023-04-12T03:32:08;5.70;;;2.67;;
61009;SDS011;46897;55.340;86.082;2023-04-12T03:34:40;18.15;;;5.88;;
61009;SDS011;46897;55.340;86.082;2023-04-12T03:40:21;12.85;;;3.80;;
61009;SDS011;46897;55.340;86.082;2023-04-12T03:42:50;9.65;;;4.30;;
61009;SDS011;46897;55.340;86.082;2023-04-12T03:45:20;9.35;;;2.97;;
61009;SDS011;46897;55.340;86.082;2023-04-12T03:47:49;9.52;;;4.53;;
61009;SDS011;46897;55.340;86.082;2023-04-12T03:50:20;15.73;;;4.32;;
61009;SDS011;46897;55.340;86.082;2023-04-12T03:52:49;7.93;;;3.75;;
61009;SDS011;46897;55.340;86.082;2023-04-12T03:55:18;3.22;;;1.50;;
61009;SDS011;46897;55.340;86.082;2023-04-12T03:57:48;8.05;;;2.05;;
61009;SDS011;46897;55.340;86.082;2023-04-12T04:00:17;4.57;;;1.70;;
61009;SDS011;46897;55.340;86.082;2023-04-12T04:03:06;7.78;;;3.03;;
61009;SDS011;46897;55.340;86.082;2023-04-12T04:05:37;8.95;;;3.45;;
61009;SDS011;46897;55.340;86.082;2023-04-12T04:08:07;13.05;;;3.05;;
61009;SDS011;46897;55.340;86.082;2023-04-12T04:10:36;18.80;;;3.83;;
61009;SDS011;46897;55.340;86.082;2023-04-12T04:15:55;6.32;;;2.60;;
61009;SDS011;46897;55.340;86.082;2023-04-12T04:18:30;9.15;;;3.50;;
61009;SDS011;46897;55.340;86.082;2023-04-12T04:21:03;10.52;;;3.80;;
61009;SDS011;46897;55.340;86.082;2023-04-12T04:23:34;5.45;;;2.17;;
61009;SDS011;46897;55.340;86.082;2023-04-12T04:26:06;19.10;;;3.13;;
61009;SDS011;46897;55.340;86.082;2023-04-12T04:28:37;8.63;;;2.72;;
61009;SDS011;46897;55.340;86.082;2023-04-12T04:31:08;7.70;;;2.80;;
61009;SDS011;46897;55.340;86.082;2023-04-12T04:34:00;9.75;;;3.38;;
61009;SDS011;46897;55.340;86.082;2023-04-12T04:36:34;10.18;;;2.63;;
61009;SDS011;46897;55.340;86.082;2023-04-12T04:39:21;8.00;;;1.95;;
61009;SDS011;46897;55.340;86.082;2023-04-12T04:41:50;3.90;;;1.65;;
61009;SDS011;46897;55.340;86.082;2023-04-12T04:47:08;6.13;;;2.40;;
61009;SDS011;46897;55.340;86.082;2023-04-12T04:55:32;5.28;;;2.25;;
61009;SDS011;46897;55.340;86.082;2023-04-12T04:58:02;6.00;;;2.17;;
61009;SDS011;46897;55.340;86.082;2023-04-12T05:00:31;6.20;;;2.08;;
61009;SDS011;46897;55.340;86.082;2023-04-12T05:03:01;6.47;;;1.98;;
61009;SDS011;46897;55.340;86.082;2023-04-12T05:05:31;5.25;;;2.00;;
61009;SDS011;46897;55.340;86.082;2023-04-12T05:08:00;8.45;;;1.50;;
61009;SDS011;46897;55.340;86.082;2023-04-12T05:10:30;4.85;;;2.55;;
61009;SDS011;46897;55.340;86.082;2023-04-12T05:13:00;2.67;;;1.70;;
61009;SDS011;46897;55.340;86.082;2023-04-12T05:15:29;7.75;;;2.47;;
61009;SDS011;46897;55.340;86.082;2023-04-12T05:17:58;5.07;;;2.45;;
61009;SDS011;46897;55.340;86.082;2023-04-12T05:26:22;6.68;;;1.58;;
61009;SDS011;46897;55.340;86.082;2023-04-12T05:28:51;8.07;;;1.48;;
61009;SDS011;46897;55.340;86.082;2023-04-12T05:34:09;10.05;;;1.80;;
61009;SDS011;46897;55.340;86.082;2023-04-12T05:36:38;15.85;;;2.80;;
61009;SDS011;46897;55.340;86.082;2023-04-12T05:39:07;4.30;;;1.33;;
61009;SDS011;46897;55.340;86.082;2023-04-12T05:44:25;5.68;;;1.90;;
61009;SDS011;46897;55.340;86.082;2023-04-12T05:46:54;4.78;;;2.38;;
61009;SDS011;46897;55.340;86.082;2023-04-12T05:49:23;4.85;;;1.90;;
61009;SDS011;46897;55.340;86.082;2023-04-12T05:51:56;5.70;;;1.92;;
61009;SDS011;46897;55.340;86.082;2023-04-12T05:57:18;2.17;;;0.98;;
61009;SDS011;46897;55.340;86.082;2023-04-12T06:00:04;11.82;;;1.73;;
61009;SDS011;46897;55.340;86.082;2023-04-12T06:02:39;4.43;;;1.70;;
61009;SDS011;46897;55.340;86.082;2023-04-12T06:05:08;5.90;;;2.20;;
61009;SDS011;46897;55.340;86.082;2023-04-12T06:07:38;8.25;;;2.33;;
61009;SDS011;46897;55.340;86.082;2023-04-12T06:10:43;15.60;;;2.30;;
61009;SDS011;46897;55.340;86.082;2023-04-12T06:16:01;10.00;;;2.17;;
61009;SDS011;46897;55.340;86.082;2023-04-12T06:18:30;4.57;;;1.65;;
61009;SDS011;46897;55.340;86.082;2023-04-12T06:21:18;4.63;;;1.88;;
61009;SDS011;46897;55.340;86.082;2023-04-12T06:23:47;3.58;;;1.52;;
61009;SDS011;46897;55.340;86.082;2023-04-12T06:26:16;6.35;;;1.95;;
61009;SDS011;46897;55.340;86.082;2023-04-12T06:28:47;3.30;;;1.42;;
61009;SDS011;46897;55.340;86.082;2023-04-12T06:31:34;8.90;;;2.17;;
61009;SDS011;46897;55.340;86.082;2023-04-12T06:34:03;13.90;;;2.38;;
61009;SDS011;46897;55.340;86.082;2023-04-12T06:36:32;5.18;;;1.60;;
61009;SDS011;46897;55.340;86.082;2023-04-12T06:39:01;3.35;;;1.42;;
61009;SDS011;46897;55.340;86.082;2023-04-12T06:41:31;5.28;;;2.10;;
61009;SDS011;46897;55.340;86.082;2023-04-12T06:49:37;7.07;;;1.92;;
61009;SDS011;46897;55.340;86.082;2023-04-12T06:52:06;4.60;;;1.35;;
61009;SDS011;46897;55.340;86.082;2023-04-12T06:54:35;6.85;;;1.85;;
61009;SDS011;46897;55.340;86.082;2023-04-12T06:57:07;2.95;;;1.48;;
61009;SDS011;46897;55.340;86.082;2023-04-12T06:59:39;6.45;;;1.80;;
61009;SDS011;46897;55.340;86.082;2023-04-12T07:02:26;3.42;;;1.45;;
61009;SDS011;46897;55.340;86.082;2023-04-12T07:04:56;6.20;;;1.88;;
61009;SDS011;46897;55.340;86.082;2023-04-12T07:07:26;3.50;;;1.38;;
61009;SDS011;46897;55.340;86.082;2023-04-12T07:09:59;2.05;;;1.35;;
61009;SDS011;46897;55.340;86.082;2023-04-12T07:12:31;3.28;;;1.23;;
61009;SDS011;46897;55.340;86.082;2023-04-12T07:15:05;3.08;;;1.15;;
61009;SDS011;46897;55.340;86.082;2023-04-12T07:17:34;4.20;;;1.60;;
61009;SDS011;46897;55.340;86.082;2023-04-12T07:20:04;5.15;;;1.60;;
61009;SDS011;46897;55.340;86.082;2023-04-12T07:22:34;4.15;;;1.85;;
61009;SDS011;46897;55.340;86.082;2023-04-12T07:27:50;13.05;;;2.15;;
61009;SDS011;46897;55.340;86.082;2023-04-12T07:30:21;11.13;;;2.95;;
61009;SDS011;46897;55.340;86.082;2023-04-12T07:32:51;9.20;;;2.95;;
61009;SDS011;46897;55.340;86.082;2023-04-12T07:35:45;6.53;;;1.60;;
61009;SDS011;46897;55.340;86.082;2023-04-12T07:38:31;3.83;;;1.60;;
61009;SDS011;46897;55.340;86.082;2023-04-12T07:41:00;4.95;;;1.70;;
61009;SDS011;46897;55.340;86.082;2023-04-12T07:43:32;20.73;;;2.33;;
61009;SDS011;46897;55.340;86.082;2023-04-12T07:46:03;6.40;;;1.58;;
61009;SDS011;46897;55.340;86.082;2023-04-12T07:48:34;3.55;;;1.70;;
61009;SDS011;46897;55.340;86.082;2023-04-12T07:51:04;5.53;;;1.85;;
61009;SDS011;46897;55.340;86.082;2023-04-12T07:53:33;7.53;;;2.10;;
61009;SDS011;46897;55.340;86.082;2023-04-12T07:56:22;1.48;;;1.05;;
61009;SDS011;46897;55.340;86.082;2023-04-12T07:58:52;7.70;;;1.95;;
61009;SDS011;46897;55.340;86.082;2023-04-12T08:01:23;4.95;;;1.80;;
61009;SDS011;46897;55.340;86.082;2023-04-12T08:03:52;4.65;;;1.50;;
61009;SDS011;46897;55.340;86.082;2023-04-12T08:06:22;10.40;;;2.55;;
61009;SDS011;46897;55.340;86.082;2023-04-12T08:08:56;6.40;;;2.17;;
61009;SDS011;46897;55.340;86.082;2023-04-12T08:11:25;4.25;;;1.67;;
61009;SDS011;46897;55.340;86.082;2023-04-12T08:13:55;7.82;;;2.30;;
61009;SDS011;46897;55.340;86.082;2023-04-12T08:16:28;3.10;;;1.30;;
61009;SDS011;46897;55.340;86.082;2023-04-12T08:18:58;6.40;;;2.15;;
61009;SDS011;46897;55.340;86.082;2023-04-12T08:21:27;5.47;;;1.95;;
61009;SDS011;46897;55.340;86.082;2023-04-12T08:23:57;3.95;;;1.70;;
61009;SDS011;46897;55.340;86.082;2023-04-12T08:29:32;12.60;;;2.38;;
61009;SDS011;46897;55.340;86.082;2023-04-12T08:32:03;4.65;;;1.50;;
61009;SDS011;46897;55.340;86.082;2023-04-12T08:34:50;3.25;;;1.65;;
61009;SDS011;46897;55.340;86.082;2023-04-12T08:37:36;14.40;;;1.90;;
61009;SDS011;46897;55.340;86.082;2023-04-12T08:40:05;8.30;;;1.80;;
61009;SDS011;46897;55.340;86.082;2023-04-12T08:42:53;3.20;;;1.33;;
61009;SDS011;46897;55.340;86.082;2023-04-12T08:45:26;1.55;;;1.20;;
61009;SDS011;46897;55.340;86.082;2023-04-12T08:47:58;6.88;;;1.80;;
61009;SDS011;46897;55.340;86.082;2023-04-12T08:50:30;5.65;;;1.90;;
61009;SDS011;46897;55.340;86.082;2023-04-12T08:53:00;4.65;;;1.83;;
61009;SDS011;46897;55.340;86.082;2023-04-12T08:55:46;8.57;;;1.58;;
61009;SDS011;46897;55.340;86.082;2023-04-12T08:58:22;5.05;;;1.40;;
61009;SDS011;46897;55.340;86.082;2023-04-12T09:04:04;3.75;;;1.90;;
61009;SDS011;46897;55.340;86.082;2023-04-12T09:06:34;6.13;;;2.20;;
61009;SDS011;46897;55.340;86.082;2023-04-12T09:09:06;11.23;;;2.80;;
61009;SDS011;46897;55.340;86.082;2023-04-12T09:11:35;7.53;;;2.47;;
61009;SDS011;46897;55.340;86.082;2023-04-12T09:14:14;7.88;;;2.13;;
61009;SDS011;46897;55.340;86.082;2023-04-12T09:25:58;17.27;;;3.35;;
61009;SDS011;46897;55.340;86.082;2023-04-12T09:28:28;5.93;;;1.60;;
61009;SDS011;46897;55.340;86.082;2023-04-12T09:30:58;8.55;;;2.00;;
61009;SDS011;46897;55.340;86.082;2023-04-12T09:33:33;9.35;;;2.05;;
61009;SDS011;46897;55.340;86.082;2023-04-12T09:39:32;8.90;;;2.10;;
61009;SDS011;46897;55.340;86.082;2023-04-12T09:45:35;3.97;;;1.60;;
61009;SDS011;46897;55.340;86.082;2023-04-12T09:48:06;5.82;;;1.52;;
61009;SDS011;46897;55.340;86.082;2023-04-12T09:50:35;3.65;;;1.50;;
61009;SDS011;46897;55.340;86.082;2023-04-12T09:53:22;3.90;;;1.88;;
61009;SDS011;46897;55.340;86.082;2023-04-12T09:55:53;4.78;;;1.90;;
61009;SDS011;46897;55.340;86.082;2023-04-12T09:58:41;7.30;;;1.70;;
61009;SDS011;46897;55.340;86.082;2023-04-12T10:01:12;10.70;;;2.92;;
61009;SDS011;46897;55.340;86.082;2023-04-12T10:03:44;6.85;;;2.08;;
61009;SDS011;46897;55.340;86.082;2023-04-12T10:06:34;9.30;;;1.83;;
61009;SDS011;46897;55.340;86.082;2023-04-12T10:09:04;5.57;;;1.67;;
61009;SDS011;46897;55.340;86.082;2023-04-12T10:14:25;5.72;;;2.10;;
61009;SDS011;46897;55.340;86.082;2023-04-12T10:20:03;6.13;;;1.50;;
61009;SDS011;46897;55.340;86.082;2023-04-12T10:22:40;5.03;;;1.50;;
61009;SDS011;46897;55.340;86.082;2023-04-12T10:25:10;17.05;;;2.13;;
61009;SDS011;46897;55.340;86.082;2023-04-12T10:27:43;9.57;;;2.75;;
61009;SDS011;46897;55.340;86.082;2023-04-12T10:30:20;9.55;;;2.30;;
61009;SDS011;46897;55.340;86.082;2023-04-12T10:35:53;4.68;;;1.60;;
61009;SDS011;46897;55.340;86.082;2023-04-12T10:38:26;10.43;;;3.33;;
61009;SDS011;46897;55.340;86.082;2023-04-12T10:41:15;3.40;;;1.50;;
61009;SDS011;46897;55.340;86.082;2023-04-12T10:43:48;12.13;;;2.85;;
61009;SDS011;46897;55.340;86.082;2023-04-12T10:49:34;7.50;;;1.92;;
61009;SDS011;46897;55.340;86.082;2023-04-12T10:52:21;6.97;;;2.08;;
61009;SDS011;46897;55.340;86.082;2023-04-12T10:54:50;4.43;;;1.67;;
61009;SDS011;46897;55.340;86.082;2023-04-12T11:06:46;7.63;;;1.88;;
61009;SDS011;46897;55.340;86.082;2023-04-12T11:09:36;4.63;;;2.25;;
61009;SDS011;46897;55.340;86.082;2023-04-12T11:12:25;8.98;;;1.38;;
61009;SDS011;46897;55.340;86.082;2023-04-12T11:15:12;7.07;;;1.80;;
61009;SDS011;46897;55.340;86.082;2023-04-12T11:18:00;3.33;;;1.55;;
61009;SDS011;46897;55.340;86.082;2023-04-12T11:23:06;4.50;;;1.65;;
61009;SDS011;46897;55.340;86.082;2023-04-12T11:25:37;6.68;;;1.67;;
61009;SDS011;46897;55.340;86.082;2023-04-12T11:28:25;13.43;;;3.45;;
61009;SDS011;46897;55.340;86.082;2023-04-12T11:31:15;10.10;;;2.30;;
61009;SDS011;46897;55.340;86.082;2023-04-12T11:33:50;7.22;;;2.03;;
61009;SDS011;46897;55.340;86.082;2023-04-12T11:36:19;5.65;;;1.50;;
61009;SDS011;46897;55.340;86.082;2023-04-12T11:38:48;11.65;;;2.60;;
61009;SDS011;46897;55.340;86.082;2023-04-12T11:41:18;7.82;;;2.70;;
61009;SDS011;46897;55.340;86.082;2023-04-12T11:43:48;9.18;;;2.53;;
61009;SDS011;46897;55.340;86.082;2023-04-12T11:46:36;11.65;;;2.55;;
61009;SDS011;46897;55.340;86.082;2023-04-12T11:49:07;10.13;;;2.60;;
61009;SDS011;46897;55.340;86.082;2023-04-12T11:52:04;7.35;;;2.13;;
61009;SDS011;46897;55.340;86.082;2023-04-12T11:54:33;6.40;;;2.72;;
61009;SDS011;46897;55.340;86.082;2023-04-12T11:57:20;8.95;;;2.67;;
61009;SDS011;46897;55.340;86.082;2023-04-12T11:59:49;6.97;;;2.10;;
61009;SDS011;46897;55.340;86.082;2023-04-12T12:02:20;7.20;;;1.80;;
61009;SDS011;46897;55.340;86.082;2023-04-12T12:04:52;7.05;;;1.83;;
61009;SDS011;46897;55.340;86.082;2023-04-12T12:07:23;8.80;;;1.55;;
61009;SDS011;46897;55.340;86.082;2023-04-12T12:09:53;6.32;;;2.10;;
61009;SDS011;46897;55.340;86.082;2023-04-12T12:12:23;8.73;;;2.17;;
61009;SDS011;46897;55.340;86.082;2023-04-12T12:15:10;8.73;;;2.30;;
61009;SDS011;46897;55.340;86.082;2023-04-12T12:17:42;8.00;;;2.15;;
61009;SDS011;46897;55.340;86.082;2023-04-12T12:20:20;9.52;;;2.05;;
61009;SDS011;46897;55.340;86.082;2023-04-12T12:22:50;4.38;;;2.00;;
61009;SDS011;46897;55.340;86.082;2023-04-12T12:25:19;7.78;;;2.13;;
61009;SDS011;46897;55.340;86.082;2023-04-12T12:27:55;26.33;;;11.00;;
61009;SDS011;46897;55.340;86.082;2023-04-12T12:30:41;8.70;;;2.05;;
61009;SDS011;46897;55.340;86.082;2023-04-12T12:33:11;4.85;;;1.80;;
61009;SDS011;46897;55.340;86.082;2023-04-12T12:35:44;9.52;;;2.13;;
61009;SDS011;46897;55.340;86.082;2023-04-12T12:38:13;9.50;;;2.33;;
61009;SDS011;46897;55.340;86.082;2023-04-12T12:40:47;10.25;;;2.28;;
61009;SDS011;46897;55.340;86.082;2023-04-12T12:43:17;6.85;;;2.75;;
61009;SDS011;46897;55.340;86.082;2023-04-12T12:46:04;10.77;;;2.85;;
61009;SDS011;46897;55.340;86.082;2023-04-12T12:48:37;10.07;;;3.50;;
61009;SDS011;46897;55.340;86.082;2023-04-12T12:51:09;16.52;;;5.18;;
61009;SDS011;46897;55.340;86.082;2023-04-12T12:53:56;19.25;;;5.22;;
61009;SDS011;46897;55.340;86.082;2023-04-12T12:57:03;16.75;;;5.65;;
61009;SDS011;46897;55.340;86.082;2023-04-12T13:02:32;19.85;;;5.55;;
61009;SDS011;46897;55.340;86.082;2023-04-12T13:05:20;50.83;;;18.33;;
61009;SDS011;46897;55.340;86.082;2023-04-12T13:07:52;14.52;;;5.97;;
61009;SDS011;46897;55.340;86.082;2023-04-12T13:10:21;18.92;;;6.82;;
61009;SDS011;46897;55.340;86.082;2023-04-12T13:12:53;17.17;;;5.38;;
61009;SDS011;46897;55.340;86.082;2023-04-12T13:15:22;14.07;;;4.57;;
61009;SDS011;46897;55.340;86.082;2023-04-12T13:17:52;11.88;;;5.07;;
61009;SDS011;46897;55.340;86.082;2023-04-12T13:20:21;23.38;;;5.10;;
61009;SDS011;46897;55.340;86.082;2023-04-12T13:22:52;26.95;;;7.95;;
61009;SDS011;46897;55.340;86.082;2023-04-12T13:25:39;16.10;;;4.78;;
61009;SDS011;46897;55.340;86.082;2023-04-12T13:28:08;16.20;;;5.00;;
61009;SDS011;46897;55.340;86.082;2023-04-12T13:33:43;17.42;;;7.45;;
61009;SDS011;46897;55.340;86.082;2023-04-12T13:36:12;22.60;;;8.05;;
61009;SDS011;46897;55.340;86.082;2023-04-12T13:38:43;23.90;;;6.50;;
61009;SDS011;46897;55.340;86.082;2023-04-12T13:44:20;21.40;;;7.43;;
61009;SDS011;46897;55.340;86.082;2023-04-12T13:46:49;23.10;;;7.72;;
61009;SDS011;46897;55.340;86.082;2023-04-12T13:49:18;17.10;;;6.00;;
61009;SDS011;46897;55.340;86.082;2023-04-12T13:51:48;22.63;;;7.47;;
61009;SDS011;46897;55.340;86.082;2023-04-12T13:54:21;22.70;;;6.88;;
61009;SDS011;46897;55.340;86.082;2023-04-12T13:56:50;27.77;;;8.73;;
61009;SDS011;46897;55.340;86.082;2023-04-12T13:59:23;30.63;;;10.90;;
61009;SDS011;46897;55.340;86.082;2023-04-12T14:01:55;32.63;;;11.50;;
61009;SDS011;46897;55.340;86.082;2023-04-12T14:04:48;44.80;;;14.43;;
61009;SDS011;46897;55.340;86.082;2023-04-12T14:10:09;39.30;;;13.55;;
61009;SDS011;46897;55.340;86.082;2023-04-12T14:12:41;41.25;;;13.85;;
61009;SDS011;46897;55.340;86.082;2023-04-12T14:15:16;44.85;;;12.93;;
61009;SDS011;46897;55.340;86.082;2023-04-12T14:17:45;40.58;;;13.50;;
61009;SDS011;46897;55.340;86.082;2023-04-12T14:23:06;48.60;;;15.65;;
61009;SDS011;46897;55.340;86.082;2023-04-12T14:25:37;58.70;;;18.13;;
61009;SDS011;46897;55.340;86.082;2023-04-12T14:28:42;72.53;;;18.45;;
61009;SDS011;46897;55.340;86.082;2023-04-12T14:31:14;75.57;;;22.42;;
61009;SDS011;46897;55.340;86.082;2023-04-12T14:33:46;74.90;;;22.00;;
61009;SDS011;46897;55.340;86.082;2023-04-12T14:36:15;78.95;;;23.63;;
61009;SDS011;46897;55.340;86.082;2023-04-12T14:38:44;80.78;;;22.83;;
61009;SDS011;46897;55.340;86.082;2023-04-12T14:41:17;95.90;;;27.08;;
61009;SDS011;46897;55.340;86.082;2023-04-12T14:43:46;87.70;;;24.77;;
61009;SDS011;46897;55.340;86.082;2023-04-12T14:46:33;81.95;;;25.23;;
61009;SDS011;46897;55.340;86.082;2023-04-12T14:49:03;78.20;;;24.42;;
61009;SDS011;46897;55.340;86.082;2023-04-12T14:51:32;89.50;;;26.40;;
61009;SDS011;46897;55.340;86.082;2023-04-12T14:54:07;68.85;;;21.88;;
61009;SDS011;46897;55.340;86.082;2023-04-12T14:56:38;62.17;;;18.55;;
61009;SDS011;46897;55.340;86.082;2023-04-12T14:59:19;56.60;;;15.38;;
61009;SDS011;46897;55.340;86.082;2023-04-12T15:01:53;49.70;;;16.42;;
61009;SDS011;46897;55.340;86.082;2023-04-12T15:04:24;31.83;;;10.98;;
61009;SDS011;46897;55.340;86.082;2023-04-12T15:06:56;34.80;;;10.13;;
61009;SDS011;46897;55.340;86.082;2023-04-12T15:09:26;26.38;;;9.10;;
61009;SDS011;46897;55.340;86.082;2023-04-12T15:15:03;26.20;;;8.77;;
61009;SDS011;46897;55.340;86.082;2023-04-12T15:23:34;38.40;;;12.98;;
61009;SDS011;46897;55.340;86.082;2023-04-12T15:26:43;82.55;;;27.70;;
61009;SDS011;46897;55.340;86.082;2023-04-12T15:32:36;44.67;;;13.07;;
61009;SDS011;46897;55.340;86.082;2023-04-12T15:35:22;33.72;;;11.23;;
61009;SDS011;46897;55.340;86.082;2023-04-12T15:38:08;38.42;;;11.23;;
61009;SDS011;46897;55.340;86.082;2023-04-12T15:40:43;30.88;;;7.97;;
61009;SDS011;46897;55.340;86.082;2023-04-12T15:43:31;33.35;;;8.20;;
61009;SDS011;46897;55.340;86.082;2023-04-12T15:46:05;26.98;;;7.43;;
61009;SDS011;46897;55.340;86.082;2023-04-12T15:48:36;14.05;;;4.85;;
61009;SDS011;46897;55.340;86.082;2023-04-12T15:51:05;18.88;;;5.90;;
61009;SDS011;46897;55.340;86.082;2023-04-12T15:53:34;16.45;;;5.70;;
61009;SDS011;46897;55.340;86.082;2023-04-12T15:56:04;19.90;;;6.35;;
61009;SDS011;46897;55.340;86.082;2023-04-12T16:01:40;20.98;;;6.75;;
61009;SDS011;46897;55.340;86.082;2023-04-12T16:04:11;24.65;;;7.38;;
61009;SDS011;46897;55.340;86.082;2023-04-12T16:06:42;21.08;;;6.90;;
61009;SDS011;46897;55.340;86.082;2023-04-12T16:09:15;23.85;;;6.75;;
61009;SDS011;46897;55.340;86.082;2023-04-12T16:11:44;15.90;;;6.20;;
61009;SDS011;46897;55.340;86.082;2023-04-12T16:14:14;15.38;;;5.50;;
61009;SDS011;46897;55.340;86.082;2023-04-12T16:16:43;13.75;;;4.93;;
61009;SDS011;46897;55.340;86.082;2023-04-12T16:19:14;15.30;;;5.00;;
61009;SDS011;46897;55.340;86.082;2023-04-12T16:21:43;15.63;;;5.18;;
61009;SDS011;46897;55.340;86.082;2023-04-12T16:24:13;16.77;;;6.13;;
61009;SDS011;46897;55.340;86.082;2023-04-12T16:26:42;8.13;;;4.00;;
61009;SDS011;46897;55.340;86.082;2023-04-12T16:29:12;15.40;;;4.20;;
61009;SDS011;46897;55.340;86.082;2023-04-12T16:34:36;16.33;;;4.70;;
61009;SDS011;46897;55.340;86.082;2023-04-12T16:37:07;10.50;;;4.50;;
61009;SDS011;46897;55.340;86.082;2023-04-12T16:42:24;15.25;;;5.47;;
61009;SDS011;46897;55.340;86.082;2023-04-12T16:44:57;17.13;;;5.22;;
61009;SDS011;46897;55.340;86.082;2023-04-12T16:47:26;19.08;;;5.40;;
61009;SDS011;46897;55.340;86.082;2023-04-12T16:49:57;16.33;;;5.75;;
61009;SDS011;46897;55.340;86.082;2023-04-12T16:52:27;19.25;;;6.20;;
61009;SDS011;46897;55.340;86.082;2023-04-12T16:54:56;13.63;;;5.45;;
61009;SDS011;46897;55.340;86.082;2023-04-12T16:57:26;19.15;;;6.57;;
61009;SDS011;46897;55.340;86.082;2023-04-12T16:59:55;21.40;;;6.47;;
61009;SDS011;46897;55.340;86.082;2023-04-12T17:02:24;16.15;;;5.80;;
61009;SDS011;46897;55.340;86.082;2023-04-12T17:05:13;13.88;;;5.65;;
61009;SDS011;46897;55.340;86.082;2023-04-12T17:07:44;18.38;;;5.82;;
61009;SDS011;46897;55.340;86.082;2023-04-12T17:10:31;30.77;;;13.00;;
61009;SDS011;46897;55.340;86.082;2023-04-12T17:13:13;17.02;;;6.75;;
61009;SDS011;46897;55.340;86.082;2023-04-12T17:15:46;15.85;;;6.82;;
61009;SDS011;46897;55.340;86.082;2023-04-12T17:18:15;19.33;;;6.53;;
61009;SDS011;46897;55.340;86.082;2023-04-12T17:20:45;14.88;;;5.60;;
61009;SDS011;46897;55.340;86.082;2023-04-12T17:23:15;11.05;;;5.07;;
61009;SDS011;46897;55.340;86.082;2023-04-12T17:25:44;12.98;;;4.93;;
61009;SDS011;46897;55.340;86.082;2023-04-12T17:28:13;12.25;;;4.60;;
61009;SDS011;46897;55.340;86.082;2023-04-12T17:30:43;11.73;;;4.75;;
61009;SDS011;46897;55.340;86.082;2023-04-12T17:33:12;13.90;;;5.03;;
61009;SDS011;46897;55.340;86.082;2023-04-12T17:35:46;11.55;;;4.55;;